sensor_id;sensor_type;location;lat;lon;timestamp;P1;durP1;ratioP1;P2;durP2;ratioP2
25023;SDS011;13033;50.936;5.334;2023-10-19T00:00:45;4.13;;;3.42;;
25023;SDS011;13033;50.936;5.334;2023-10-19T00:03:14;5.10;;;3.40;;
25023;SDS011;13033;50.936;5.334;2023-10-19T00:05:40;4.35;;;3.30;;
25023;SDS011;13033;50.936;5.334;2023-10-19T00:08:10;4.55;;;3.40;;
25023;SDS011;13033;50.936;5.334;2023-10-19T00:10:39;3.83;;;3.45;;
25023;SDS011;13033;50.936;5.334;2023-10-19T00:13:09;4.32;;;3.45;;
25023;SDS011;13033;50.936;5.334;2023-10-19T00:15:39;3.63;;;3.13;;
25023;SDS011;13033;50.936;5.334;2023-10-19T00:18:08;4.28;;;3.60;;
25023;SDS011;13033;50.936;5.334;2023-10-19T00:20:47;6.28;;;3.53;;
25023;SDS011;13033;50.936;5.334;2023-10-19T00:23:21;5.00;;;3.53;;
25023;SDS011;13033;50.936;5.334;2023-10-19T00:25:54;3.50;;;3.20;;
25023;SDS011;13033;50.936;5.334;2023-10-19T00:28:21;3.47;;;3.13;;
25023;SDS011;13033;50.936;5.334;2023-10-19T00:30:47;5.45;;;2.97;;
25023;SDS011;13033;50.936;5.334;2023-10-19T00:33:18;3.85;;;3.03;;
25023;SDS011;13033;50.936;5.334;2023-10-19T00:35:48;5.13;;;3.58;;
25023;SDS011;13033;50.936;5.334;2023-10-19T00:38:25;4.53;;;2.85;;
25023;SDS011;13033;50.936;5.334;2023-10-19T00:40:51;5.20;;;2.60;;
25023;SDS011;13033;50.936;5.334;2023-10-19T00:43:31;5.13;;;2.95;;
25023;SDS011;13033;50.936;5.334;2023-10-19T00:46:08;5.82;;;2.83;;
25023;SDS011;13033;50.936;5.334;2023-10-19T00:48:47;5.97;;;2.60;;
25023;SDS011;13033;50.936;5.334;2023-10-19T00:51:16;5.07;;;2.00;;
25023;SDS011;13033;50.936;5.334;2023-10-19T00:54:14;4.50;;;2.00;;
25023;SDS011;13033;50.936;5.334;2023-10-19T00:56:51;6.07;;;1.60;;
25023;SDS011;13033;50.936;5.334;2023-10-19T00:59:20;3.45;;;1.40;;
25023;SDS011;13033;50.936;5.334;2023-10-19T01:01:54;4.68;;;0.80;;
25023;SDS011;13033;50.936;5.334;2023-10-19T01:04:23;4.15;;;1.30;;
25023;SDS011;13033;50.936;5.334;2023-10-19T01:06:50;3.38;;;0.90;;
25023;SDS011;13033;50.936;5.334;2023-10-19T01:09:45;4.32;;;1.23;;
25023;SDS011;13033;50.936;5.334;2023-10-19T01:12:11;5.88;;;1.30;;
25023;SDS011;13033;50.936;5.334;2023-10-19T01:17:35;4.28;;;1.63;;
25023;SDS011;13033;50.936;5.334;2023-10-19T01:20:07;3.50;;;1.20;;
25023;SDS011;13033;50.936;5.334;2023-10-19T01:25:46;5.45;;;1.58;;
25023;SDS011;13033;50.936;5.334;2023-10-19T01:28:23;4.75;;;0.93;;
25023;SDS011;13033;50.936;5.334;2023-10-19T01:31:14;4.38;;;1.08;;
25023;SDS011;13033;50.936;5.334;2023-10-19T01:33:52;2.83;;;0.90;;
25023;SDS011;13033;50.936;5.334;2023-10-19T01:36:26;3.95;;;1.15;;
25023;SDS011;13033;50.936;5.334;2023-10-19T01:38:55;7.30;;;1.10;;
25023;SDS011;13033;50.936;5.334;2023-10-19T01:41:26;5.68;;;1.20;;
25023;SDS011;13033;50.936;5.334;2023-10-19T01:43:53;4.32;;;1.00;;
25023;SDS011;13033;50.936;5.334;2023-10-19T01:46:20;3.10;;;0.93;;
25023;SDS011;13033;50.936;5.334;2023-10-19T01:48:56;6.18;;;1.00;;
25023;SDS011;13033;50.936;5.334;2023-10-19T01:51:22;4.45;;;1.10;;
25023;SDS011;13033;50.936;5.334;2023-10-19T01:53:50;5.63;;;0.80;;
25023;SDS011;13033;50.936;5.334;2023-10-19T01:56:16;5.15;;;0.88;;
25023;SDS011;13033;50.936;5.334;2023-10-19T01:58:43;4.20;;;0.93;;
25023;SDS011;13033;50.936;5.334;2023-10-19T02:01:13;5.22;;;1.10;;
25023;SDS011;13033;50.936;5.334;2023-10-19T02:03:45;3.80;;;0.90;;
25023;SDS011;13033;50.936;5.334;2023-10-19T02:06:13;4.97;;;1.02;;
25023;SDS011;13033;50.936;5.334;2023-10-19T02:08:51;5.80;;;1.03;;
25023;SDS011;13033;50.936;5.334;2023-10-19T02:11:21;4.95;;;0.80;;
25023;SDS011;13033;50.936;5.334;2023-10-19T02:13:49;3.03;;;1.13;;
25023;SDS011;13033;50.936;5.334;2023-10-19T02:16:16;6.90;;;1.33;;
25023;SDS011;13033;50.936;5.334;2023-10-19T02:18:46;3.47;;;1.02;;
25023;SDS011;13033;50.936;5.334;2023-10-19T02:21:12;4.90;;;1.00;;
25023;SDS011;13033;50.936;5.334;2023-10-19T02:23:41;5.72;;;1.20;;
25023;SDS011;13033;50.936;5.334;2023-10-19T02:26:07;3.47;;;0.82;;
25023;SDS011;13033;50.936;5.334;2023-10-19T02:28:33;7.55;;;1.23;;
25023;SDS011;13033;50.936;5.334;2023-10-19T02:31:05;7.13;;;1.27;;
25023;SDS011;13033;50.936;5.334;2023-10-19T02:33:41;4.00;;;1.00;;
25023;SDS011;13033;50.936;5.334;2023-10-19T02:36:11;5.43;;;1.00;;
25023;SDS011;13033;50.936;5.334;2023-10-19T02:38:41;6.35;;;0.95;;
25023;SDS011;13033;50.936;5.334;2023-10-19T02:41:10;4.50;;;0.98;;
25023;SDS011;13033;50.936;5.334;2023-10-19T02:43:36;4.32;;;0.93;;
25023;SDS011;13033;50.936;5.334;2023-10-19T02:46:03;3.85;;;0.80;;
25023;SDS011;13033;50.936;5.334;2023-10-19T02:48:29;4.00;;;1.20;;
25023;SDS011;13033;50.936;5.334;2023-10-19T02:50:56;4.25;;;0.82;;
25023;SDS011;13033;50.936;5.334;2023-10-19T02:53:30;6.97;;;1.30;;
25023;SDS011;13033;50.936;5.334;2023-10-19T02:55:57;4.47;;;0.95;;
25023;SDS011;13033;50.936;5.334;2023-10-19T02:58:27;5.13;;;0.82;;
25023;SDS011;13033;50.936;5.334;2023-10-19T03:00:53;4.43;;;0.95;;
25023;SDS011;13033;50.936;5.334;2023-10-19T03:03:20;4.15;;;0.80;;
25023;SDS011;13033;50.936;5.334;2023-10-19T03:05:45;3.45;;;0.88;;
25023;SDS011;13033;50.936;5.334;2023-10-19T03:08:11;5.55;;;1.05;;
25023;SDS011;13033;50.936;5.334;2023-10-19T03:10:40;5.60;;;0.85;;
25023;SDS011;13033;50.936;5.334;2023-10-19T03:13:09;3.30;;;0.90;;
25023;SDS011;13033;50.936;5.334;2023-10-19T03:15:35;4.28;;;1.08;;
25023;SDS011;13033;50.936;5.334;2023-10-19T03:18:01;4.15;;;1.35;;
25023;SDS011;13033;50.936;5.334;2023-10-19T03:20:29;5.88;;;1.08;;
25023;SDS011;13033;50.936;5.334;2023-10-19T03:22:58;5.18;;;1.25;;
25023;SDS011;13033;50.936;5.334;2023-10-19T03:25:26;6.80;;;1.20;;
25023;SDS011;13033;50.936;5.334;2023-10-19T03:28:10;3.92;;;0.98;;
25023;SDS011;13033;50.936;5.334;2023-10-19T03:30:37;5.97;;;1.10;;
25023;SDS011;13033;50.936;5.334;2023-10-19T03:33:06;7.43;;;1.20;;
25023;SDS011;13033;50.936;5.334;2023-10-19T03:35:37;8.70;;;1.20;;
25023;SDS011;13033;50.936;5.334;2023-10-19T03:38:07;5.22;;;0.95;;
25023;SDS011;13033;50.936;5.334;2023-10-19T03:40:39;7.82;;;0.98;;
25023;SDS011;13033;50.936;5.334;2023-10-19T03:43:06;3.67;;;0.98;;
25023;SDS011;13033;50.936;5.334;2023-10-19T03:45:42;5.80;;;1.10;;
25023;SDS011;13033;50.936;5.334;2023-10-19T03:48:14;5.35;;;1.00;;
25023;SDS011;13033;50.936;5.334;2023-10-19T03:50:41;5.65;;;1.20;;
25023;SDS011;13033;50.936;5.334;2023-10-19T03:53:07;8.98;;;1.25;;
25023;SDS011;13033;50.936;5.334;2023-10-19T03:55:37;7.25;;;1.40;;
25023;SDS011;13033;50.936;5.334;2023-10-19T03:58:03;5.22;;;1.23;;
25023;SDS011;13033;50.936;5.334;2023-10-19T04:00:29;8.30;;;1.40;;
25023;SDS011;13033;50.936;5.334;2023-10-19T04:02:58;5.07;;;1.30;;
25023;SDS011;13033;50.936;5.334;2023-10-19T04:05:24;8.45;;;1.42;;
25023;SDS011;13033;50.936;5.334;2023-10-19T04:07:51;5.40;;;1.30;;
25023;SDS011;13033;50.936;5.334;2023-10-19T04:10:22;4.70;;;1.27;;
25023;SDS011;13033;50.936;5.334;2023-10-19T04:12:55;6.90;;;1.52;;
25023;SDS011;13033;50.936;5.334;2023-10-19T04:15:21;8.07;;;1.90;;
25023;SDS011;13033;50.936;5.334;2023-10-19T04:17:47;6.60;;;1.50;;
25023;SDS011;13033;50.936;5.334;2023-10-19T04:20:18;11.57;;;1.80;;
25023;SDS011;13033;50.936;5.334;2023-10-19T04:22:47;4.05;;;1.73;;
25023;SDS011;13033;50.936;5.334;2023-10-19T04:25:15;8.27;;;1.83;;
25023;SDS011;13033;50.936;5.334;2023-10-19T04:27:44;8.68;;;1.48;;
25023;SDS011;13033;50.936;5.334;2023-10-19T04:30:11;9.05;;;1.70;;
25023;SDS011;13033;50.936;5.334;2023-10-19T04:32:45;8.98;;;1.60;;
25023;SDS011;13033;50.936;5.334;2023-10-19T04:35:11;5.80;;;1.50;;
25023;SDS011;13033;50.936;5.334;2023-10-19T04:37:47;10.60;;;2.40;;
25023;SDS011;13033;50.936;5.334;2023-10-19T04:40:18;6.40;;;1.30;;
25023;SDS011;13033;50.936;5.334;2023-10-19T04:42:45;10.65;;;1.60;;
25023;SDS011;13033;50.936;5.334;2023-10-19T04:45:11;8.68;;;1.85;;
25023;SDS011;13033;50.936;5.334;2023-10-19T04:47:38;13.15;;;2.03;;
25023;SDS011;13033;50.936;5.334;2023-10-19T04:50:06;7.47;;;1.85;;
25023;SDS011;13033;50.936;5.334;2023-10-19T04:52:35;7.93;;;2.03;;
25023;SDS011;13033;50.936;5.334;2023-10-19T04:55:02;7.97;;;1.65;;
25023;SDS011;13033;50.936;5.334;2023-10-19T04:57:28;7.38;;;1.60;;
25023;SDS011;13033;50.936;5.334;2023-10-19T04:59:55;8.43;;;1.63;;
25023;SDS011;13033;50.936;5.334;2023-10-19T05:02:21;8.70;;;2.30;;
25023;SDS011;13033;50.936;5.334;2023-10-19T05:04:47;9.55;;;1.80;;
25023;SDS011;13033;50.936;5.334;2023-10-19T05:07:13;7.60;;;1.70;;
25023;SDS011;13033;50.936;5.334;2023-10-19T05:09:45;5.88;;;1.50;;
25023;SDS011;13033;50.936;5.334;2023-10-19T05:12:11;7.07;;;2.05;;
25023;SDS011;13033;50.936;5.334;2023-10-19T05:14:39;9.70;;;1.65;;
25023;SDS011;13033;50.936;5.334;2023-10-19T05:17:06;14.48;;;1.90;;
25023;SDS011;13033;50.936;5.334;2023-10-19T05:19:34;15.48;;;2.13;;
25023;SDS011;13033;50.936;5.334;2023-10-19T05:22:01;7.38;;;2.10;;
25023;SDS011;13033;50.936;5.334;2023-10-19T05:24:29;9.45;;;2.05;;
25023;SDS011;13033;50.936;5.334;2023-10-19T05:26:55;9.43;;;1.95;;
25023;SDS011;13033;50.936;5.334;2023-10-19T05:29:21;7.20;;;2.05;;
25023;SDS011;13033;50.936;5.334;2023-10-19T05:31:47;10.20;;;2.13;;
25023;SDS011;13033;50.936;5.334;2023-10-19T05:34:18;10.07;;;1.95;;
25023;SDS011;13033;50.936;5.334;2023-10-19T05:36:47;9.93;;;2.28;;
25023;SDS011;13033;50.936;5.334;2023-10-19T05:39:16;8.40;;;1.50;;
25023;SDS011;13033;50.936;5.334;2023-10-19T05:41:47;13.00;;;2.15;;
25023;SDS011;13033;50.936;5.334;2023-10-19T05:44:13;7.35;;;1.75;;
25023;SDS011;13033;50.936;5.334;2023-10-19T05:46:39;9.00;;;2.08;;
25023;SDS011;13033;50.936;5.334;2023-10-19T05:49:06;8.48;;;1.63;;
25023;SDS011;13033;50.936;5.334;2023-10-19T05:51:31;7.15;;;2.15;;
25023;SDS011;13033;50.936;5.334;2023-10-19T05:53:57;12.05;;;2.00;;
25023;SDS011;13033;50.936;5.334;2023-10-19T05:56:29;8.85;;;2.05;;
25023;SDS011;13033;50.936;5.334;2023-10-19T05:58:56;13.77;;;2.35;;
25023;SDS011;13033;50.936;5.334;2023-10-19T06:01:23;9.55;;;1.58;;
25023;SDS011;13033;50.936;5.334;2023-10-19T06:03:49;12.90;;;1.98;;
25023;SDS011;13033;50.936;5.334;2023-10-19T06:06:16;9.60;;;1.83;;
25023;SDS011;13033;50.936;5.334;2023-10-19T06:08:41;6.88;;;1.60;;
25023;SDS011;13033;50.936;5.334;2023-10-19T06:11:08;7.63;;;1.83;;
25023;SDS011;13033;50.936;5.334;2023-10-19T06:13:34;9.13;;;1.90;;
25023;SDS011;13033;50.936;5.334;2023-10-19T06:16:00;8.20;;;1.77;;
25023;SDS011;13033;50.936;5.334;2023-10-19T06:18:25;7.00;;;1.67;;
25023;SDS011;13033;50.936;5.334;2023-10-19T06:20:51;10.40;;;1.88;;
25023;SDS011;13033;50.936;5.334;2023-10-19T06:23:20;6.88;;;1.73;;
25023;SDS011;13033;50.936;5.334;2023-10-19T06:25:46;8.95;;;1.67;;
25023;SDS011;13033;50.936;5.334;2023-10-19T06:28:11;9.05;;;2.20;;
25023;SDS011;13033;50.936;5.334;2023-10-19T06:30:38;5.82;;;1.75;;
25023;SDS011;13033;50.936;5.334;2023-10-19T06:33:05;11.48;;;2.00;;
25023;SDS011;13033;50.936;5.334;2023-10-19T06:35:31;6.55;;;1.70;;
25023;SDS011;13033;50.936;5.334;2023-10-19T06:37:58;7.38;;;1.77;;
25023;SDS011;13033;50.936;5.334;2023-10-19T06:40:25;9.52;;;1.58;;
25023;SDS011;13033;50.936;5.334;2023-10-19T06:42:57;6.88;;;1.92;;
25023;SDS011;13033;50.936;5.334;2023-10-19T06:45:24;14.35;;;2.00;;
25023;SDS011;13033;50.936;5.334;2023-10-19T06:47:50;8.77;;;1.70;;
25023;SDS011;13033;50.936;5.334;2023-10-19T06:50:20;10.93;;;2.13;;
25023;SDS011;13033;50.936;5.334;2023-10-19T06:52:47;8.77;;;1.60;;
25023;SDS011;13033;50.936;5.334;2023-10-19T06:55:13;9.98;;;1.85;;
25023;SDS011;13033;50.936;5.334;2023-10-19T06:57:44;8.70;;;1.80;;
25023;SDS011;13033;50.936;5.334;2023-10-19T07:00:15;11.68;;;2.17;;
25023;SDS011;13033;50.936;5.334;2023-10-19T07:02:51;10.63;;;1.88;;
25023;SDS011;13033;50.936;5.334;2023-10-19T07:05:18;8.07;;;1.65;;
25023;SDS011;13033;50.936;5.334;2023-10-19T07:07:54;8.45;;;1.83;;
25023;SDS011;13033;50.936;5.334;2023-10-19T07:10:22;7.45;;;1.88;;
25023;SDS011;13033;50.936;5.334;2023-10-19T07:12:50;8.48;;;1.80;;
25023;SDS011;13033;50.936;5.334;2023-10-19T07:15:18;8.40;;;1.70;;
25023;SDS011;13033;50.936;5.334;2023-10-19T07:17:45;8.18;;;1.88;;
25023;SDS011;13033;50.936;5.334;2023-10-19T07:20:13;8.27;;;1.77;;
25023;SDS011;13033;50.936;5.334;2023-10-19T07:23:01;6.88;;;1.85;;
25023;SDS011;13033;50.936;5.334;2023-10-19T07:25:35;11.27;;;2.08;;
25023;SDS011;13033;50.936;5.334;2023-10-19T07:28:13;6.22;;;2.30;;
25023;SDS011;13033;50.936;5.334;2023-10-19T07:30:40;8.15;;;2.13;;
25023;SDS011;13033;50.936;5.334;2023-10-19T07:33:09;10.32;;;1.90;;
25023;SDS011;13033;50.936;5.334;2023-10-19T07:35:39;13.10;;;2.10;;
25023;SDS011;13033;50.936;5.334;2023-10-19T07:38:07;8.20;;;1.75;;
25023;SDS011;13033;50.936;5.334;2023-10-19T07:40:36;8.32;;;2.00;;
25023;SDS011;13033;50.936;5.334;2023-10-19T07:43:02;10.05;;;2.25;;
25023;SDS011;13033;50.936;5.334;2023-10-19T07:45:29;8.75;;;2.38;;
25023;SDS011;13033;50.936;5.334;2023-10-19T07:47:56;8.93;;;1.92;;
25023;SDS011;13033;50.936;5.334;2023-10-19T07:50:23;13.63;;;2.28;;
25023;SDS011;13033;50.936;5.334;2023-10-19T07:52:52;16.55;;;2.28;;
25023;SDS011;13033;50.936;5.334;2023-10-19T07:55:20;11.48;;;1.90;;
25023;SDS011;13033;50.936;5.334;2023-10-19T07:57:49;11.65;;;2.45;;
25023;SDS011;13033;50.936;5.334;2023-10-19T08:00:16;11.00;;;2.50;;
25023;SDS011;13033;50.936;5.334;2023-10-19T08:02:45;15.82;;;2.33;;
25023;SDS011;13033;50.936;5.334;2023-10-19T08:05:15;12.35;;;2.08;;
25023;SDS011;13033;50.936;5.334;2023-10-19T08:07:43;10.95;;;2.08;;
25023;SDS011;13033;50.936;5.334;2023-10-19T08:10:10;13.23;;;2.58;;
25023;SDS011;13033;50.936;5.334;2023-10-19T08:12:37;7.70;;;2.15;;
25023;SDS011;13033;50.936;5.334;2023-10-19T08:15:06;14.35;;;3.15;;
25023;SDS011;13033;50.936;5.334;2023-10-19T08:17:39;13.60;;;1.73;;
25023;SDS011;13033;50.936;5.334;2023-10-19T08:20:05;13.85;;;2.28;;
25023;SDS011;13033;50.936;5.334;2023-10-19T08:22:43;10.70;;;2.78;;
25023;SDS011;13033;50.936;5.334;2023-10-19T08:25:13;12.45;;;2.40;;
25023;SDS011;13033;50.936;5.334;2023-10-19T08:27:46;14.27;;;2.72;;
25023;SDS011;13033;50.936;5.334;2023-10-19T08:30:15;12.63;;;2.78;;
25023;SDS011;13033;50.936;5.334;2023-10-19T08:32:46;10.00;;;1.90;;
25023;SDS011;13033;50.936;5.334;2023-10-19T08:35:16;11.63;;;2.38;;
25023;SDS011;13033;50.936;5.334;2023-10-19T08:37:46;10.18;;;2.30;;
25023;SDS011;13033;50.936;5.334;2023-10-19T08:40:12;15.27;;;2.50;;
25023;SDS011;13033;50.936;5.334;2023-10-19T08:42:43;11.73;;;2.75;;
25023;SDS011;13033;50.936;5.334;2023-10-19T08:45:10;9.90;;;2.45;;
25023;SDS011;13033;50.936;5.334;2023-10-19T08:47:43;9.13;;;2.35;;
25023;SDS011;13033;50.936;5.334;2023-10-19T08:50:21;13.45;;;2.35;;
25023;SDS011;13033;50.936;5.334;2023-10-19T08:52:49;14.68;;;2.00;;
25023;SDS011;13033;50.936;5.334;2023-10-19T08:55:21;9.50;;;1.88;;
25023;SDS011;13033;50.936;5.334;2023-10-19T08:57:48;12.02;;;2.33;;
25023;SDS011;13033;50.936;5.334;2023-10-19T09:00:15;11.48;;;2.53;;
25023;SDS011;13033;50.936;5.334;2023-10-19T09:02:44;10.43;;;2.22;;
25023;SDS011;13033;50.936;5.334;2023-10-19T09:05:10;12.93;;;2.28;;
25023;SDS011;13033;50.936;5.334;2023-10-19T09:07:45;12.38;;;2.40;;
25023;SDS011;13033;50.936;5.334;2023-10-19T09:10:15;11.45;;;2.35;;
25023;SDS011;13033;50.936;5.334;2023-10-19T09:12:41;14.07;;;2.45;;
25023;SDS011;13033;50.936;5.334;2023-10-19T09:15:20;15.77;;;2.47;;
25023;SDS011;13033;50.936;5.334;2023-10-19T09:17:47;12.68;;;3.00;;
25023;SDS011;13033;50.936;5.334;2023-10-19T09:20:14;9.82;;;2.30;;
25023;SDS011;13033;50.936;5.334;2023-10-19T09:22:52;17.27;;;2.90;;
25023;SDS011;13033;50.936;5.334;2023-10-19T09:25:21;9.48;;;2.17;;
25023;SDS011;13033;50.936;5.334;2023-10-19T09:27:48;17.27;;;2.67;;
25023;SDS011;13033;50.936;5.334;2023-10-19T09:30:14;11.93;;;2.10;;
25023;SDS011;13033;50.936;5.334;2023-10-19T09:32:45;10.02;;;2.47;;
25023;SDS011;13033;50.936;5.334;2023-10-19T09:35:13;12.30;;;2.28;;
25023;SDS011;13033;50.936;5.334;2023-10-19T09:37:42;11.23;;;2.95;;
25023;SDS011;13033;50.936;5.334;2023-10-19T09:40:12;13.75;;;2.85;;
25023;SDS011;13033;50.936;5.334;2023-10-19T09:42:43;10.10;;;2.08;;
25023;SDS011;13033;50.936;5.334;2023-10-19T09:45:13;14.15;;;2.92;;
25023;SDS011;13033;50.936;5.334;2023-10-19T09:47:47;15.43;;;2.90;;
25023;SDS011;13033;50.936;5.334;2023-10-19T09:50:16;11.70;;;3.10;;
25023;SDS011;13033;50.936;5.334;2023-10-19T09:52:41;16.15;;;3.15;;
25023;SDS011;13033;50.936;5.334;2023-10-19T09:55:10;9.88;;;2.50;;
25023;SDS011;13033;50.936;5.334;2023-10-19T09:57:51;12.23;;;2.75;;
25023;SDS011;13033;50.936;5.334;2023-10-19T10:00:36;15.80;;;2.58;;
25023;SDS011;13033;50.936;5.334;2023-10-19T10:03:01;14.40;;;2.70;;
25023;SDS011;13033;50.936;5.334;2023-10-19T10:10:44;13.35;;;2.63;;
25023;SDS011;13033;50.936;5.334;2023-10-19T10:15:52;14.48;;;2.92;;
25023;SDS011;13033;50.936;5.334;2023-10-19T10:18:31;16.23;;;2.35;;
25023;SDS011;13033;50.936;5.334;2023-10-19T10:21:13;14.23;;;3.00;;
25023;SDS011;13033;50.936;5.334;2023-10-19T10:23:43;15.15;;;2.88;;
25023;SDS011;13033;50.936;5.334;2023-10-19T10:26:13;11.30;;;2.55;;
25023;SDS011;13033;50.936;5.334;2023-10-19T10:28:47;13.45;;;2.75;;
25023;SDS011;13033;50.936;5.334;2023-10-19T10:31:31;14.48;;;2.85;;
25023;SDS011;13033;50.936;5.334;2023-10-19T10:34:01;15.05;;;2.92;;
25023;SDS011;13033;50.936;5.334;2023-10-19T10:36:27;12.43;;;2.95;;
25023;SDS011;13033;50.936;5.334;2023-10-19T10:39:36;10.45;;;2.33;;
25023;SDS011;13033;50.936;5.334;2023-10-19T10:42:05;12.95;;;2.88;;
25023;SDS011;13033;50.936;5.334;2023-10-19T10:44:39;12.15;;;3.05;;
25023;SDS011;13033;50.936;5.334;2023-10-19T10:47:29;12.30;;;2.58;;
25023;SDS011;13033;50.936;5.334;2023-10-19T10:49:59;10.93;;;2.20;;
25023;SDS011;13033;50.936;5.334;2023-10-19T10:55:07;13.57;;;3.60;;
25023;SDS011;13033;50.936;5.334;2023-10-19T11:02:40;10.40;;;2.63;;
25023;SDS011;13033;50.936;5.334;2023-10-19T11:05:11;12.02;;;3.03;;
25023;SDS011;13033;50.936;5.334;2023-10-19T11:07:41;14.95;;;2.70;;
25023;SDS011;13033;50.936;5.334;2023-10-19T11:10:27;11.95;;;2.75;;
25023;SDS011;13033;50.936;5.334;2023-10-19T11:12:59;12.02;;;2.88;;
25023;SDS011;13033;50.936;5.334;2023-10-19T11:15:28;18.13;;;2.80;;
25023;SDS011;13033;50.936;5.334;2023-10-19T11:17:54;14.93;;;2.70;;
25023;SDS011;13033;50.936;5.334;2023-10-19T11:20:21;13.05;;;2.97;;
25023;SDS011;13033;50.936;5.334;2023-10-19T11:22:51;11.48;;;3.50;;
25023;SDS011;13033;50.936;5.334;2023-10-19T11:25:25;14.40;;;2.67;;
25023;SDS011;13033;50.936;5.334;2023-10-19T11:27:55;16.63;;;2.70;;
25023;SDS011;13033;50.936;5.334;2023-10-19T11:30:26;17.25;;;3.08;;
25023;SDS011;13033;50.936;5.334;2023-10-19T11:32:53;12.95;;;2.47;;
25023;SDS011;13033;50.936;5.334;2023-10-19T11:35:27;13.43;;;2.85;;
25023;SDS011;13033;50.936;5.334;2023-10-19T11:37:57;13.77;;;2.92;;
25023;SDS011;13033;50.936;5.334;2023-10-19T11:40:24;12.77;;;3.05;;
25023;SDS011;13033;50.936;5.334;2023-10-19T11:42:51;10.88;;;2.67;;
25023;SDS011;13033;50.936;5.334;2023-10-19T11:45:18;16.35;;;3.50;;
25023;SDS011;13033;50.936;5.334;2023-10-19T11:47:44;12.75;;;2.80;;
25023;SDS011;13033;50.936;5.334;2023-10-19T11:50:11;12.82;;;2.38;;
25023;SDS011;13033;50.936;5.334;2023-10-19T11:52:43;10.55;;;2.40;;
25023;SDS011;13033;50.936;5.334;2023-10-19T11:55:13;14.65;;;2.40;;
25023;SDS011;13033;50.936;5.334;2023-10-19T11:57:40;9.63;;;1.80;;
25023;SDS011;13033;50.936;5.334;2023-10-19T12:00:08;11.45;;;2.53;;
25023;SDS011;13033;50.936;5.334;2023-10-19T12:02:46;8.10;;;2.28;;
25023;SDS011;13033;50.936;5.334;2023-10-19T12:05:12;7.50;;;2.15;;
25023;SDS011;13033;50.936;5.334;2023-10-19T12:07:38;9.15;;;2.10;;
25023;SDS011;13033;50.936;5.334;2023-10-19T12:10:08;14.80;;;2.72;;
25023;SDS011;13033;50.936;5.334;2023-10-19T12:12:35;10.18;;;2.08;;
25023;SDS011;13033;50.936;5.334;2023-10-19T12:15:02;9.52;;;2.00;;
25023;SDS011;13033;50.936;5.334;2023-10-19T12:17:30;8.52;;;2.13;;
25023;SDS011;13033;50.936;5.334;2023-10-19T12:19:59;11.82;;;2.45;;
25023;SDS011;13033;50.936;5.334;2023-10-19T12:22:24;8.93;;;2.38;;
25023;SDS011;13033;50.936;5.334;2023-10-19T12:24:56;9.17;;;2.10;;
25023;SDS011;13033;50.936;5.334;2023-10-19T12:27:23;9.57;;;2.05;;
25023;SDS011;13033;50.936;5.334;2023-10-19T12:29:50;11.77;;;2.40;;
25023;SDS011;13033;50.936;5.334;2023-10-19T12:32:17;11.57;;;2.28;;
25023;SDS011;13033;50.936;5.334;2023-10-19T12:34:43;9.93;;;2.20;;
25023;SDS011;13033;50.936;5.334;2023-10-19T12:37:10;7.20;;;2.13;;
25023;SDS011;13033;50.936;5.334;2023-10-19T12:39:38;10.55;;;2.15;;
25023;SDS011;13033;50.936;5.334;2023-10-19T12:42:14;8.65;;;2.78;;
25023;SDS011;13033;50.936;5.334;2023-10-19T12:44:40;9.60;;;2.63;;
25023;SDS011;13033;50.936;5.334;2023-10-19T12:47:08;9.75;;;2.47;;
25023;SDS011;13033;50.936;5.334;2023-10-19T12:49:38;10.45;;;2.60;;
25023;SDS011;13033;50.936;5.334;2023-10-19T12:52:05;7.43;;;2.20;;
25023;SDS011;13033;50.936;5.334;2023-10-19T12:54:35;11.18;;;3.03;;
25023;SDS011;13033;50.936;5.334;2023-10-19T12:57:02;12.82;;;3.05;;
25023;SDS011;13033;50.936;5.334;2023-10-19T12:59:35;12.52;;;3.58;;
25023;SDS011;13033;50.936;5.334;2023-10-19T13:02:05;7.70;;;2.28;;
25023;SDS011;13033;50.936;5.334;2023-10-19T13:04:33;12.75;;;2.83;;
25023;SDS011;13033;50.936;5.334;2023-10-19T13:06:59;9.55;;;2.92;;
25023;SDS011;13033;50.936;5.334;2023-10-19T13:09:27;11.15;;;2.58;;
25023;SDS011;13033;50.936;5.334;2023-10-19T13:11:56;7.40;;;2.40;;
25023;SDS011;13033;50.936;5.334;2023-10-19T13:14:23;10.32;;;2.55;;
25023;SDS011;13033;50.936;5.334;2023-10-19T13:16:48;10.90;;;2.75;;
25023;SDS011;13033;50.936;5.334;2023-10-19T13:19:18;13.00;;;2.40;;
25023;SDS011;13033;50.936;5.334;2023-10-19T13:21:46;7.65;;;2.13;;
25023;SDS011;13033;50.936;5.334;2023-10-19T13:24:14;8.40;;;2.60;;
25023;SDS011;13033;50.936;5.334;2023-10-19T13:26:41;7.97;;;2.45;;
25023;SDS011;13033;50.936;5.334;2023-10-19T13:29:11;8.77;;;2.22;;
25023;SDS011;13033;50.936;5.334;2023-10-19T13:31:36;7.40;;;1.92;;
25023;SDS011;13033;50.936;5.334;2023-10-19T13:34:02;7.97;;;2.10;;
25023;SDS011;13033;50.936;5.334;2023-10-19T13:36:31;8.48;;;2.20;;
25023;SDS011;13033;50.936;5.334;2023-10-19T13:38:56;10.27;;;2.30;;
25023;SDS011;13033;50.936;5.334;2023-10-19T13:41:22;7.28;;;2.35;;
25023;SDS011;13033;50.936;5.334;2023-10-19T13:43:47;7.85;;;2.47;;
25023;SDS011;13033;50.936;5.334;2023-10-19T13:46:13;7.15;;;2.25;;
25023;SDS011;13033;50.936;5.334;2023-10-19T13:48:40;10.15;;;2.42;;
25023;SDS011;13033;50.936;5.334;2023-10-19T13:51:05;6.70;;;2.35;;
25023;SDS011;13033;50.936;5.334;2023-10-19T13:53:38;8.27;;;2.33;;
25023;SDS011;13033;50.936;5.334;2023-10-19T13:56:07;6.05;;;2.05;;
25023;SDS011;13033;50.936;5.334;2023-10-19T13:58:36;11.65;;;2.60;;
25023;SDS011;13033;50.936;5.334;2023-10-19T14:01:05;4.78;;;1.95;;
25023;SDS011;13033;50.936;5.334;2023-10-19T14:03:33;9.43;;;2.75;;
25023;SDS011;13033;50.936;5.334;2023-10-19T14:05:59;7.40;;;2.20;;
25023;SDS011;13033;50.936;5.334;2023-10-19T14:08:25;10.73;;;2.88;;
25023;SDS011;13033;50.936;5.334;2023-10-19T14:10:51;7.88;;;2.30;;
25023;SDS011;13033;50.936;5.334;2023-10-19T14:13:16;5.07;;;1.80;;
25023;SDS011;13033;50.936;5.334;2023-10-19T14:15:42;6.22;;;2.22;;
25023;SDS011;13033;50.936;5.334;2023-10-19T14:18:08;9.13;;;2.33;;
25023;SDS011;13033;50.936;5.334;2023-10-19T14:20:36;9.13;;;2.20;;
25023;SDS011;13033;50.936;5.334;2023-10-19T14:23:04;9.57;;;2.50;;
25023;SDS011;13033;50.936;5.334;2023-10-19T14:25:30;7.20;;;2.53;;
25023;SDS011;13033;50.936;5.334;2023-10-19T14:27:56;7.65;;;2.00;;
25023;SDS011;13033;50.936;5.334;2023-10-19T14:30:28;8.38;;;2.42;;
25023;SDS011;13033;50.936;5.334;2023-10-19T14:32:54;7.72;;;2.10;;
25023;SDS011;13033;50.936;5.334;2023-10-19T14:35:20;6.55;;;2.08;;
25023;SDS011;13033;50.936;5.334;2023-10-19T14:37:47;5.60;;;1.90;;
25023;SDS011;13033;50.936;5.334;2023-10-19T14:40:16;6.55;;;2.05;;
25023;SDS011;13033;50.936;5.334;2023-10-19T14:42:45;4.97;;;1.92;;
25023;SDS011;13033;50.936;5.334;2023-10-19T14:45:11;5.95;;;1.95;;
25023;SDS011;13033;50.936;5.334;2023-10-19T14:47:39;4.00;;;1.80;;
25023;SDS011;13033;50.936;5.334;2023-10-19T14:50:15;4.10;;;1.50;;
25023;SDS011;13033;50.936;5.334;2023-10-19T14:52:43;4.85;;;1.65;;
25023;SDS011;13033;50.936;5.334;2023-10-19T14:55:10;4.55;;;1.98;;
25023;SDS011;13033;50.936;5.334;2023-10-19T14:57:38;3.25;;;1.88;;
25023;SDS011;13033;50.936;5.334;2023-10-19T15:00:07;4.80;;;1.90;;
25023;SDS011;13033;50.936;5.334;2023-10-19T15:02:37;6.35;;;1.92;;
25023;SDS011;13033;50.936;5.334;2023-10-19T15:05:04;3.78;;;1.80;;
25023;SDS011;13033;50.936;5.334;2023-10-19T15:07:30;6.15;;;2.28;;
25023;SDS011;13033;50.936;5.334;2023-10-19T15:09:56;8.45;;;1.88;;
25023;SDS011;13033;50.936;5.334;2023-10-19T15:12:21;6.43;;;2.10;;
25023;SDS011;13033;50.936;5.334;2023-10-19T15:14:48;4.95;;;1.88;;
25023;SDS011;13033;50.936;5.334;2023-10-19T15:17:15;4.88;;;2.05;;